createdAt,value
2022-11-04T00:04:14.725Z,8.00
2022-11-04T00:09:22.047Z,7.90
2022-11-04T00:14:24.107Z,7.90
2022-11-04T00:19:26.073Z,8.00
2022-11-04T00:24:42.831Z,7.90
2022-11-04T00:29:44.816Z,7.90
2022-11-04T00:34:46.666Z,7.80
2022-11-04T00:39:48.662Z,7.60
2022-11-04T00:44:50.513Z,7.70
2022-11-04T00:49:52.527Z,7.70
2022-11-04T00:54:54.443Z,7.60
2022-11-04T00:59:56.573Z,7.70
2022-11-04T01:04:58.441Z,7.70
2022-11-04T01:10:00.471Z,7.50
2022-11-04T01:15:02.397Z,7.40
2022-11-04T01:20:04.665Z,7.60
2022-11-04T01:25:07.500Z,7.50
2022-11-04T01:30:10.319Z,7.40
2022-11-04T01:35:12.271Z,7.30
2022-11-04T01:40:14.171Z,7.40
2022-11-04T01:45:18.763Z,7.40
2022-11-04T01:50:25.428Z,7.40
2022-11-04T01:55:31.529Z,7.20
2022-11-04T02:00:33.673Z,7.10
2022-11-04T02:05:35.831Z,7.10
2022-11-04T02:10:41.741Z,7.10
2022-11-04T02:16:02.197Z,7.10
2022-11-04T02:21:09.961Z,7.10
2022-11-04T02:26:49.829Z,7.10
2022-11-04T02:32:12.926Z,7.00
2022-11-04T02:37:43.308Z,7.20
2022-11-04T02:43:17.625Z,7.30
2022-11-04T02:48:28.432Z,7.30
2022-11-04T02:53:32.847Z,7.20
2022-11-04T02:58:45.738Z,7.10
2022-11-04T03:03:53.048Z,7.10
2022-11-04T03:08:57.755Z,7.30
2022-11-04T03:14:10.704Z,7.40
2022-11-04T03:19:19.356Z,7.40
2022-11-04T03:24:21.506Z,7.50
2022-11-04T03:29:39.691Z,7.70
2022-11-04T03:34:42.694Z,7.70
2022-11-04T03:39:44.672Z,7.70
2022-11-04T03:44:51.675Z,7.70
2022-11-04T03:50:06.977Z,7.80
2022-11-04T03:55:10.531Z,7.70
2022-11-04T04:00:16.131Z,7.70
2022-11-04T04:05:35.983Z,7.80
2022-11-04T04:11:04.995Z,7.60
2022-11-04T04:16:34.903Z,7.50
2022-11-04T04:21:46.764Z,7.30
2022-11-04T04:27:09.266Z,7.10
2022-11-04T04:32:12.838Z,7.20
2022-11-04T04:37:23.907Z,7.10
2022-11-04T04:42:52.605Z,7.00
2022-11-04T04:47:54.606Z,6.90
2022-11-04T04:52:58.232Z,7.10
2022-11-04T04:58:00.294Z,7.10
2022-11-04T05:03:02.318Z,7.10
2022-11-04T05:08:06.669Z,7.20
2022-11-04T05:13:29.943Z,7.10
2022-11-04T05:18:31.790Z,6.90
2022-11-04T05:23:35.130Z,7.00
2022-11-04T05:28:36.900Z,7.10
2022-11-04T05:33:39.102Z,7.00
2022-11-04T05:38:41.605Z,7.00
2022-11-04T05:43:43.385Z,7.00
2022-11-04T05:48:45.161Z,6.80
2022-11-04T05:53:47.019Z,6.70
2022-11-04T05:58:49.071Z,6.70
2022-11-04T06:03:52.139Z,6.50
2022-11-04T06:08:54.133Z,6.30
2022-11-04T06:13:57.029Z,6.20
2022-11-04T06:19:01.749Z,6.20
2022-11-04T06:24:08.210Z,6.50
2022-11-04T06:29:10.005Z,6.50
2022-11-04T06:34:11.855Z,6.60
2022-11-04T06:39:13.959Z,7.00
2022-11-04T06:44:15.902Z,7.40
2022-11-04T06:49:25.606Z,7.60
2022-11-04T06:54:27.388Z,7.90
2022-11-04T06:59:29.203Z,8.30
2022-11-04T07:04:31.193Z,8.40
2022-11-04T07:09:33.919Z,8.50
2022-11-04T07:14:35.767Z,8.80
2022-11-04T07:19:37.620Z,10.00
2022-11-04T07:24:39.505Z,11.00
2022-11-04T07:29:41.510Z,11.50
2022-11-04T07:34:43.610Z,12.00
2022-11-04T07:39:45.394Z,11.90
2022-11-04T07:44:47.594Z,11.90
2022-11-04T07:49:49.504Z,11.90
2022-11-04T07:54:51.381Z,12.10
2022-11-04T07:59:53.659Z,13.10
2022-11-04T08:04:56.049Z,13.10
2022-11-04T08:09:58.434Z,12.60
2022-11-04T08:15:01.054Z,12.30
2022-11-04T08:20:03.616Z,12.20
2022-11-04T08:25:06.517Z,12.70
2022-11-04T08:30:09.622Z,14.10
2022-11-04T08:35:12.593Z,14.90
2022-11-04T08:40:14.913Z,15.90
2022-11-04T08:45:17.633Z,14.90
2022-11-04T08:50:20.093Z,14.10
2022-11-04T08:55:22.487Z,14.00
2022-11-04T09:00:24.767Z,13.70
2022-11-04T09:05:27.386Z,13.70
2022-11-04T09:10:29.646Z,13.80
2022-11-04T09:15:32.168Z,14.50
2022-11-04T09:20:35.034Z,15.00
2022-11-04T09:25:37.131Z,14.90
2022-11-04T09:30:38.953Z,15.50
2022-11-04T09:35:40.970Z,16.10
2022-11-04T09:40:42.803Z,15.80
2022-11-04T09:45:45.057Z,15.00
2022-11-04T09:50:55.871Z,14.80
2022-11-04T09:56:01.354Z,15.60
2022-11-04T10:01:21.704Z,16.10
2022-11-04T10:06:32.678Z,15.70
2022-11-04T10:11:59.852Z,14.90
2022-11-04T10:17:13.194Z,15.00
2022-11-04T10:22:23.612Z,15.20
2022-11-04T10:27:30.006Z,15.30
2022-11-04T10:33:13.297Z,15.80
2022-11-04T10:38:22.589Z,15.20
2022-11-04T10:43:37.183Z,15.60
2022-11-04T10:48:52.085Z,15.50
2022-11-04T10:53:59.809Z,15.50
2022-11-04T10:59:28.786Z,15.70
2022-11-04T11:04:36.054Z,15.50
2022-11-04T11:09:40.903Z,15.50
2022-11-04T11:14:43.110Z,15.70
2022-11-04T11:19:59.928Z,15.80
2022-11-04T11:25:20.992Z,15.60
2022-11-04T11:30:31.862Z,15.30
2022-11-04T11:35:44.972Z,15.20
2022-11-04T11:41:10.842Z,15.10
2022-11-04T11:46:12.657Z,15.10
2022-11-04T11:51:26.342Z,15.20
2022-11-04T11:57:07.349Z,15.30
2022-11-04T12:02:42.414Z,15.10
2022-11-04T12:13:43.458Z,15.30
2022-11-04T12:19:06.718Z,15.10
2022-11-04T12:24:27.991Z,15.10
2022-11-04T12:29:46.612Z,15.10
2022-11-04T12:35:12.269Z,15.10
2022-11-04T12:40:36.474Z,15.00
2022-11-04T12:45:51.319Z,14.90
2022-11-04T12:51:00.406Z,14.80
2022-11-04T12:56:08.996Z,14.80
2022-11-04T13:01:23.792Z,14.70
2022-11-04T13:06:41.349Z,14.60
2022-11-04T13:11:53.814Z,14.50
2022-11-04T13:17:00.211Z,14.40
2022-11-04T13:22:08.353Z,14.30
2022-11-04T13:27:19.706Z,14.10
2022-11-04T13:32:31.998Z,14.00
2022-11-04T13:37:55.520Z,13.90
2022-11-04T13:43:40.055Z,13.80
2022-11-04T13:49:02.533Z,13.90
2022-11-04T13:54:06.413Z,13.80
2022-11-04T13:59:19.551Z,13.80
2022-11-04T14:04:31.985Z,13.80
2022-11-04T14:09:51.937Z,13.70
2022-11-04T14:15:07.269Z,13.70
2022-11-04T14:20:27.129Z,13.70
2022-11-04T14:25:38.668Z,13.60
2022-11-04T14:30:53.387Z,13.60
2022-11-04T14:35:57.510Z,13.50
2022-11-04T14:41:22.427Z,13.30
2022-11-04T14:46:29.631Z,13.20
2022-11-04T14:51:39.593Z,13.10
2022-11-04T14:56:41.670Z,13.00
2022-11-04T15:01:43.924Z,13.00
2022-11-04T15:06:58.255Z,12.80
2022-11-04T15:12:30.282Z,12.70
2022-11-04T15:17:33.536Z,12.70
2022-11-04T15:22:36.151Z,12.90
2022-11-04T15:27:37.999Z,12.60
2022-11-04T15:32:40.529Z,12.50
2022-11-04T15:37:43.874Z,12.40
2022-11-04T15:42:47.056Z,12.10
2022-11-04T15:47:49.732Z,12.30
2022-11-04T15:53:03.004Z,11.80
2022-11-04T15:58:13.785Z,11.70
2022-11-04T16:03:19.889Z,11.50
2022-11-04T16:08:24.180Z,11.40
2022-11-04T16:13:26.115Z,11.40
2022-11-04T16:18:49.327Z,11.30
2022-11-04T16:24:05.833Z,11.10
2022-11-04T16:29:22.141Z,10.80
2022-11-04T16:34:23.922Z,10.70
2022-11-04T16:39:25.759Z,11.10
2022-11-04T16:44:27.898Z,11.30
2022-11-04T16:49:29.749Z,11.00
2022-11-04T16:54:31.683Z,10.90
2022-11-04T16:59:33.489Z,11.00
2022-11-04T17:04:35.335Z,10.90
2022-11-04T17:09:37.160Z,10.90
2022-11-04T17:14:39.202Z,10.90
2022-11-04T17:19:41.060Z,11.10
2022-11-04T17:24:42.875Z,11.10
2022-11-04T17:29:44.761Z,11.10
2022-11-04T17:34:46.785Z,11.10
2022-11-04T17:39:48.717Z,11.10
2022-11-04T17:44:50.551Z,11.10
2022-11-04T17:49:52.551Z,11.10
2022-11-04T17:54:54.394Z,10.90
2022-11-04T17:59:56.248Z,10.90
2022-11-04T18:04:58.302Z,10.90
2022-11-04T18:10:00.599Z,10.80
2022-11-04T18:15:03.418Z,10.70
2022-11-04T18:20:13.331Z,10.60
2022-11-04T18:25:15.962Z,10.60
2022-11-04T18:30:17.922Z,10.50
2022-11-04T18:35:19.769Z,10.40
2022-11-04T18:40:21.626Z,10.40
2022-11-04T18:45:23.943Z,10.30
2022-11-04T18:50:25.754Z,10.30
2022-11-04T18:55:27.651Z,10.30
2022-11-04T19:00:30.699Z,10.40
2022-11-04T19:05:32.664Z,10.40
2022-11-04T19:10:51.722Z,10.40
2022-11-04T19:16:06.117Z,10.40
2022-11-04T19:21:11.664Z,10.50
2022-11-04T19:26:19.108Z,10.50
2022-11-04T19:31:24.464Z,10.40
2022-11-04T19:36:26.677Z,10.50
2022-11-04T19:41:47.487Z,10.60
2022-11-04T19:46:49.763Z,10.50
2022-11-04T19:51:51.618Z,10.40
2022-11-04T19:56:53.456Z,10.30
2022-11-04T20:01:55.507Z,10.20
2022-11-04T20:06:57.441Z,10.20
2022-11-04T20:12:17.800Z,10.20
2022-11-04T20:17:20.808Z,10.10
2022-11-04T20:22:22.687Z,10.20
2022-11-04T20:27:24.582Z,10.30
2022-11-04T20:32:26.454Z,10.20
2022-11-04T20:37:28.444Z,10.20
2022-11-04T20:42:30.627Z,10.30
2022-11-04T20:47:32.574Z,10.40
2022-11-04T20:52:35.542Z,10.40
2022-11-04T20:57:37.467Z,10.40
2022-11-04T21:02:39.435Z,10.10
2022-11-04T21:07:41.384Z,10.10
2022-11-04T21:12:43.230Z,10.20
2022-11-04T21:17:45.032Z,10.10
2022-11-04T21:22:46.847Z,10.00
2022-11-04T21:27:48.738Z,10.10
2022-11-04T21:32:50.551Z,10.30
2022-11-04T21:37:52.388Z,10.40
2022-11-04T21:42:54.189Z,10.40
2022-11-04T21:47:56.056Z,10.30
2022-11-04T21:52:58.592Z,10.30
2022-11-04T21:58:00.451Z,10.20
2022-11-04T22:03:02.281Z,10.20
2022-11-04T22:08:19.905Z,10.10
2022-11-04T22:13:22.991Z,10.10
2022-11-04T22:18:25.438Z,10.00
2022-11-04T22:23:27.489Z,10.20
2022-11-04T22:28:29.739Z,10.20
2022-11-04T22:33:32.076Z,10.20
2022-11-04T22:38:35.188Z,10.30
2022-11-04T22:43:36.966Z,10.20
2022-11-04T22:48:39.061Z,10.10
2022-11-04T22:53:41.223Z,10.20
2022-11-04T22:58:43.171Z,10.20
2022-11-04T23:03:45.231Z,10.20
2022-11-04T23:08:47.247Z,10.20
2022-11-04T23:14:20.569Z,10.20
2022-11-04T23:19:26.936Z,10.20
2022-11-04T23:24:50.457Z,10.00
2022-11-04T23:30:10.717Z,9.90
2022-11-04T23:35:31.132Z,10.00
2022-11-04T23:40:33.270Z,10.00
2022-11-04T23:45:53.786Z,10.00
2022-11-04T23:51:16.264Z,10.00
2022-11-04T23:56:36.641Z,10.30
